sensor_id;sensor_type;location;lat;lon;timestamp;P1;durP1;ratioP1;P2;durP2;ratioP2
46322;SDS011;32044;52.386;13.278;2022-10-17T00:02:06;11.57;;;7.28;;
46322;SDS011;32044;52.386;13.278;2022-10-17T00:04:31;13.43;;;7.43;;
46322;SDS011;32044;52.386;13.278;2022-10-17T00:06:56;9.77;;;6.95;;
46322;SDS011;32044;52.386;13.278;2022-10-17T00:09:22;9.57;;;7.20;;
46322;SDS011;32044;52.386;13.278;2022-10-17T00:11:47;8.45;;;7.03;;
46322;SDS011;32044;52.386;13.278;2022-10-17T00:14:12;9.00;;;7.05;;
46322;SDS011;32044;52.386;13.278;2022-10-17T00:16:37;10.07;;;6.93;;
46322;SDS011;32044;52.386;13.278;2022-10-17T00:19:04;8.32;;;6.55;;
46322;SDS011;32044;52.386;13.278;2022-10-17T00:21:30;8.57;;;5.97;;
46322;SDS011;32044;52.386;13.278;2022-10-17T00:23:56;9.27;;;5.40;;
46322;SDS011;32044;52.386;13.278;2022-10-17T00:26:21;7.25;;;5.57;;
46322;SDS011;32044;52.386;13.278;2022-10-17T00:28:47;5.93;;;5.03;;
46322;SDS011;32044;52.386;13.278;2022-10-17T00:31:13;7.13;;;5.70;;
46322;SDS011;32044;52.386;13.278;2022-10-17T00:33:38;6.25;;;5.40;;
46322;SDS011;32044;52.386;13.278;2022-10-17T00:36:12;6.25;;;5.18;;
46322;SDS011;32044;52.386;13.278;2022-10-17T00:38:40;6.38;;;4.95;;
46322;SDS011;32044;52.386;13.278;2022-10-17T00:41:07;7.22;;;5.47;;
46322;SDS011;32044;52.386;13.278;2022-10-17T00:46:24;6.97;;;4.90;;
46322;SDS011;32044;52.386;13.278;2022-10-17T00:48:52;7.03;;;5.22;;
46322;SDS011;32044;52.386;13.278;2022-10-17T00:51:19;7.55;;;5.10;;
46322;SDS011;32044;52.386;13.278;2022-10-17T00:53:50;7.47;;;5.68;;
46322;SDS011;32044;52.386;13.278;2022-10-17T00:56:15;6.80;;;5.95;;
46322;SDS011;32044;52.386;13.278;2022-10-17T00:58:42;7.07;;;5.40;;
46322;SDS011;32044;52.386;13.278;2022-10-17T01:01:08;6.43;;;5.07;;
46322;SDS011;32044;52.386;13.278;2022-10-17T01:03:33;5.72;;;4.68;;
46322;SDS011;32044;52.386;13.278;2022-10-17T01:05:58;6.45;;;4.97;;
46322;SDS011;32044;52.386;13.278;2022-10-17T01:08:23;6.38;;;5.22;;
46322;SDS011;32044;52.386;13.278;2022-10-17T01:10:53;6.22;;;5.10;;
46322;SDS011;32044;52.386;13.278;2022-10-17T01:13:29;6.22;;;5.57;;
46322;SDS011;32044;52.386;13.278;2022-10-17T01:16:08;6.18;;;5.18;;
46322;SDS011;32044;52.386;13.278;2022-10-17T01:21:19;7.13;;;4.67;;
46322;SDS011;32044;52.386;13.278;2022-10-17T01:24:06;6.75;;;4.75;;
46322;SDS011;32044;52.386;13.278;2022-10-17T01:26:54;5.13;;;4.28;;
46322;SDS011;32044;52.386;13.278;2022-10-17T01:29:28;4.88;;;4.38;;
46322;SDS011;32044;52.386;13.278;2022-10-17T01:32:03;5.95;;;4.95;;
46322;SDS011;32044;52.386;13.278;2022-10-17T01:34:48;6.30;;;5.53;;
46322;SDS011;32044;52.386;13.278;2022-10-17T01:37:27;7.03;;;6.32;;
46322;SDS011;32044;52.386;13.278;2022-10-17T01:40:03;6.32;;;5.72;;
46322;SDS011;32044;52.386;13.278;2022-10-17T01:42:41;10.47;;;7.00;;
46322;SDS011;32044;52.386;13.278;2022-10-17T01:45:28;7.38;;;6.25;;
46322;SDS011;32044;52.386;13.278;2022-10-17T01:47:57;6.20;;;5.43;;
46322;SDS011;32044;52.386;13.278;2022-10-17T01:50:26;6.25;;;4.88;;
46322;SDS011;32044;52.386;13.278;2022-10-17T01:52:54;6.25;;;5.47;;
46322;SDS011;32044;52.386;13.278;2022-10-17T01:55:24;6.70;;;5.57;;
46322;SDS011;32044;52.386;13.278;2022-10-17T01:57:54;10.60;;;5.60;;
46322;SDS011;32044;52.386;13.278;2022-10-17T02:00:22;7.03;;;5.50;;
46322;SDS011;32044;52.386;13.278;2022-10-17T02:02:57;6.00;;;5.15;;
46322;SDS011;32044;52.386;13.278;2022-10-17T02:05:26;5.30;;;4.70;;
46322;SDS011;32044;52.386;13.278;2022-10-17T02:07:55;7.25;;;5.22;;
46322;SDS011;32044;52.386;13.278;2022-10-17T02:10:34;6.05;;;5.40;;
46322;SDS011;32044;52.386;13.278;2022-10-17T02:13:30;7.57;;;4.75;;
46322;SDS011;32044;52.386;13.278;2022-10-17T02:16:26;5.60;;;5.10;;
46322;SDS011;32044;52.386;13.278;2022-10-17T02:21:53;6.60;;;5.40;;
46322;SDS011;32044;52.386;13.278;2022-10-17T02:24:31;7.05;;;5.70;;
46322;SDS011;32044;52.386;13.278;2022-10-17T02:29:48;6.05;;;5.45;;
46322;SDS011;32044;52.386;13.278;2022-10-17T02:33:01;5.90;;;5.30;;
46322;SDS011;32044;52.386;13.278;2022-10-17T02:35:12;5.68;;;5.18;;
46322;SDS011;32044;52.386;13.278;2022-10-17T02:37:38;5.93;;;5.40;;
46322;SDS011;32044;52.386;13.278;2022-10-17T02:40:05;6.93;;;5.90;;
46322;SDS011;32044;52.386;13.278;2022-10-17T02:42:32;6.60;;;5.05;;
46322;SDS011;32044;52.386;13.278;2022-10-17T02:44:58;6.20;;;5.57;;
46322;SDS011;32044;52.386;13.278;2022-10-17T02:47:26;5.43;;;4.93;;
46322;SDS011;32044;52.386;13.278;2022-10-17T02:49:54;5.55;;;5.05;;
46322;SDS011;32044;52.386;13.278;2022-10-17T02:52:36;5.72;;;4.82;;
46322;SDS011;32044;52.386;13.278;2022-10-17T02:55:18;5.50;;;4.68;;
46322;SDS011;32044;52.386;13.278;2022-10-17T02:57:50;6.50;;;4.75;;
46322;SDS011;32044;52.386;13.278;2022-10-17T03:00:20;6.72;;;6.03;;
46322;SDS011;32044;52.386;13.278;2022-10-17T03:02:48;7.22;;;6.43;;
46322;SDS011;32044;52.386;13.278;2022-10-17T03:05:18;8.98;;;7.57;;
46322;SDS011;32044;52.386;13.278;2022-10-17T03:07:45;9.05;;;7.10;;
46322;SDS011;32044;52.386;13.278;2022-10-17T03:10:11;5.47;;;4.97;;
46322;SDS011;32044;52.386;13.278;2022-10-17T03:12:36;6.32;;;5.22;;
46322;SDS011;32044;52.386;13.278;2022-10-17T03:15:02;5.00;;;4.50;;
46322;SDS011;32044;52.386;13.278;2022-10-17T03:17:27;5.80;;;5.20;;
46322;SDS011;32044;52.386;13.278;2022-10-17T03:19:53;7.10;;;6.03;;
46322;SDS011;32044;52.386;13.278;2022-10-17T03:22:18;9.77;;;8.13;;
46322;SDS011;32044;52.386;13.278;2022-10-17T03:24:43;15.70;;;9.32;;
46322;SDS011;32044;52.386;13.278;2022-10-17T03:27:09;12.43;;;10.10;;
46322;SDS011;32044;52.386;13.278;2022-10-17T03:29:34;10.60;;;9.50;;
46322;SDS011;32044;52.386;13.278;2022-10-17T03:32:00;13.05;;;9.80;;
46322;SDS011;32044;52.386;13.278;2022-10-17T03:34:25;11.07;;;9.38;;
46322;SDS011;32044;52.386;13.278;2022-10-17T03:36:50;11.48;;;9.88;;
46322;SDS011;32044;52.386;13.278;2022-10-17T03:39:15;11.35;;;9.85;;
46322;SDS011;32044;52.386;13.278;2022-10-17T03:41:41;13.65;;;11.77;;
46322;SDS011;32044;52.386;13.278;2022-10-17T03:44:06;12.50;;;10.60;;
46322;SDS011;32044;52.386;13.278;2022-10-17T03:46:31;12.82;;;11.48;;
46322;SDS011;32044;52.386;13.278;2022-10-17T03:48:57;13.48;;;11.77;;
46322;SDS011;32044;52.386;13.278;2022-10-17T03:51:22;12.07;;;10.77;;
46322;SDS011;32044;52.386;13.278;2022-10-17T03:53:47;18.83;;;11.25;;
46322;SDS011;32044;52.386;13.278;2022-10-17T03:58:39;10.32;;;9.23;;
46322;SDS011;32044;52.386;13.278;2022-10-17T04:01:05;9.35;;;8.35;;
46322;SDS011;32044;52.386;13.278;2022-10-17T04:03:31;10.40;;;8.95;;
46322;SDS011;32044;52.386;13.278;2022-10-17T04:06:00;9.32;;;7.75;;
46322;SDS011;32044;52.386;13.278;2022-10-17T04:08:26;11.75;;;10.55;;
46322;SDS011;32044;52.386;13.278;2022-10-17T04:10:51;13.60;;;11.20;;
46322;SDS011;32044;52.386;13.278;2022-10-17T04:13:17;12.88;;;11.45;;
46322;SDS011;32044;52.386;13.278;2022-10-17T04:15:52;12.73;;;11.23;;
46322;SDS011;32044;52.386;13.278;2022-10-17T04:18:18;14.35;;;12.15;;
46322;SDS011;32044;52.386;13.278;2022-10-17T04:20:43;18.00;;;11.85;;
46322;SDS011;32044;52.386;13.278;2022-10-17T04:23:08;16.33;;;12.23;;
46322;SDS011;32044;52.386;13.278;2022-10-17T04:25:33;12.93;;;11.60;;
46322;SDS011;32044;52.386;13.278;2022-10-17T04:27:59;17.35;;;12.30;;
46322;SDS011;32044;52.386;13.278;2022-10-17T04:30:24;16.73;;;11.70;;
46322;SDS011;32044;52.386;13.278;2022-10-17T04:32:49;13.00;;;11.65;;
46322;SDS011;32044;52.386;13.278;2022-10-17T04:35:15;16.75;;;12.15;;
46322;SDS011;32044;52.386;13.278;2022-10-17T04:37:40;13.98;;;10.63;;
46322;SDS011;32044;52.386;13.278;2022-10-17T04:40:06;11.45;;;10.30;;
46322;SDS011;32044;52.386;13.278;2022-10-17T04:42:32;12.68;;;11.35;;
46322;SDS011;32044;52.386;13.278;2022-10-17T04:44:57;12.40;;;11.10;;
46322;SDS011;32044;52.386;13.278;2022-10-17T04:47:22;12.77;;;10.35;;
46322;SDS011;32044;52.386;13.278;2022-10-17T04:49:48;11.70;;;10.48;;
46322;SDS011;32044;52.386;13.278;2022-10-17T04:52:13;11.10;;;9.95;;
46322;SDS011;32044;52.386;13.278;2022-10-17T04:54:38;13.65;;;10.18;;
46322;SDS011;32044;52.386;13.278;2022-10-17T04:57:03;11.05;;;9.85;;
46322;SDS011;32044;52.386;13.278;2022-10-17T04:59:29;9.60;;;8.13;;
46322;SDS011;32044;52.386;13.278;2022-10-17T05:01:55;8.40;;;7.20;;
46322;SDS011;32044;52.386;13.278;2022-10-17T05:04:20;8.07;;;7.28;;
46322;SDS011;32044;52.386;13.278;2022-10-17T05:06:45;10.55;;;9.43;;
46322;SDS011;32044;52.386;13.278;2022-10-17T05:09:11;10.43;;;9.43;;
46322;SDS011;32044;52.386;13.278;2022-10-17T05:11:36;14.23;;;11.13;;
46322;SDS011;32044;52.386;13.278;2022-10-17T05:14:01;13.43;;;11.77;;
46322;SDS011;32044;52.386;13.278;2022-10-17T05:16:27;16.25;;;12.18;;
46322;SDS011;32044;52.386;13.278;2022-10-17T05:18:54;17.52;;;12.90;;
46322;SDS011;32044;52.386;13.278;2022-10-17T05:21:21;15.55;;;12.95;;
46322;SDS011;32044;52.386;13.278;2022-10-17T05:23:46;15.52;;;12.88;;
46322;SDS011;32044;52.386;13.278;2022-10-17T05:26:12;14.80;;;12.27;;
46322;SDS011;32044;52.386;13.278;2022-10-17T05:28:37;17.20;;;13.55;;
46322;SDS011;32044;52.386;13.278;2022-10-17T05:31:07;15.30;;;13.10;;
46322;SDS011;32044;52.386;13.278;2022-10-17T05:33:34;16.23;;;12.00;;
46322;SDS011;32044;52.386;13.278;2022-10-17T05:35:59;11.48;;;10.27;;
46322;SDS011;32044;52.386;13.278;2022-10-17T05:38:25;16.20;;;11.20;;
46322;SDS011;32044;52.386;13.278;2022-10-17T05:40:51;14.30;;;11.60;;
46322;SDS011;32044;52.386;13.278;2022-10-17T05:43:16;13.98;;;11.05;;
46322;SDS011;32044;52.386;13.278;2022-10-17T05:45:41;15.10;;;11.07;;
46322;SDS011;32044;52.386;13.278;2022-10-17T05:48:06;9.38;;;8.35;;
46322;SDS011;32044;52.386;13.278;2022-10-17T05:50:33;9.48;;;8.23;;
46322;SDS011;32044;52.386;13.278;2022-10-17T05:52:58;10.20;;;7.78;;
46322;SDS011;32044;52.386;13.278;2022-10-17T05:55:23;7.55;;;6.85;;
46322;SDS011;32044;52.386;13.278;2022-10-17T05:57:49;9.32;;;7.25;;
46322;SDS011;32044;52.386;13.278;2022-10-17T06:00:16;11.38;;;8.48;;
46322;SDS011;32044;52.386;13.278;2022-10-17T06:02:42;11.48;;;10.25;;
46322;SDS011;32044;52.386;13.278;2022-10-17T06:05:09;11.48;;;10.35;;
46322;SDS011;32044;52.386;13.278;2022-10-17T06:07:35;12.55;;;11.07;;
46322;SDS011;32044;52.386;13.278;2022-10-17T06:10:00;14.63;;;11.98;;
46322;SDS011;32044;52.386;13.278;2022-10-17T06:12:25;13.23;;;11.52;;
46322;SDS011;32044;52.386;13.278;2022-10-17T06:14:51;15.23;;;10.50;;
46322;SDS011;32044;52.386;13.278;2022-10-17T06:17:16;12.40;;;10.55;;
46322;SDS011;32044;52.386;13.278;2022-10-17T06:19:41;10.07;;;8.25;;
46322;SDS011;32044;52.386;13.278;2022-10-17T06:22:08;9.02;;;8.18;;
46322;SDS011;32044;52.386;13.278;2022-10-17T06:24:33;11.55;;;7.68;;
46322;SDS011;32044;52.386;13.278;2022-10-17T06:26:59;9.15;;;8.00;;
46322;SDS011;32044;52.386;13.278;2022-10-17T06:29:24;8.27;;;7.38;;
46322;SDS011;32044;52.386;13.278;2022-10-17T06:31:49;8.18;;;7.35;;
46322;SDS011;32044;52.386;13.278;2022-10-17T06:34:15;8.82;;;7.93;;
46322;SDS011;32044;52.386;13.278;2022-10-17T06:36:40;9.18;;;7.80;;
46322;SDS011;32044;52.386;13.278;2022-10-17T06:39:05;7.40;;;6.70;;
46322;SDS011;32044;52.386;13.278;2022-10-17T06:41:31;7.57;;;6.78;;
46322;SDS011;32044;52.386;13.278;2022-10-17T06:43:56;6.57;;;5.70;;
46322;SDS011;32044;52.386;13.278;2022-10-17T06:46:21;6.97;;;5.60;;
46322;SDS011;32044;52.386;13.278;2022-10-17T06:48:49;6.78;;;5.80;;
46322;SDS011;32044;52.386;13.278;2022-10-17T06:51:14;5.63;;;5.13;;
46322;SDS011;32044;52.386;13.278;2022-10-17T06:53:39;6.13;;;5.50;;
46322;SDS011;32044;52.386;13.278;2022-10-17T06:56:05;9.38;;;6.05;;
46322;SDS011;32044;52.386;13.278;2022-10-17T06:58:33;5.78;;;5.28;;
46322;SDS011;32044;52.386;13.278;2022-10-17T07:01:00;8.88;;;5.78;;
46322;SDS011;32044;52.386;13.278;2022-10-17T07:03:26;6.53;;;5.85;;
46322;SDS011;32044;52.386;13.278;2022-10-17T07:05:52;7.30;;;5.95;;
46322;SDS011;32044;52.386;13.278;2022-10-17T07:08:18;10.07;;;5.57;;
46322;SDS011;32044;52.386;13.278;2022-10-17T07:10:43;7.50;;;5.55;;
46322;SDS011;32044;52.386;13.278;2022-10-17T07:13:08;7.47;;;5.05;;
46322;SDS011;32044;52.386;13.278;2022-10-17T07:15:33;11.20;;;5.85;;
46322;SDS011;32044;52.386;13.278;2022-10-17T07:17:59;10.50;;;5.90;;
46322;SDS011;32044;52.386;13.278;2022-10-17T07:20:24;8.93;;;5.75;;
46322;SDS011;32044;52.386;13.278;2022-10-17T07:22:49;8.68;;;5.53;;
46322;SDS011;32044;52.386;13.278;2022-10-17T07:25:14;7.80;;;5.68;;
46322;SDS011;32044;52.386;13.278;2022-10-17T07:27:40;7.03;;;4.70;;
46322;SDS011;32044;52.386;13.278;2022-10-17T07:30:05;6.72;;;5.13;;
46322;SDS011;32044;52.386;13.278;2022-10-17T07:32:31;7.95;;;4.57;;
46322;SDS011;32044;52.386;13.278;2022-10-17T07:34:57;7.78;;;4.20;;
46322;SDS011;32044;52.386;13.278;2022-10-17T07:37:22;8.32;;;4.00;;
46322;SDS011;32044;52.386;13.278;2022-10-17T07:39:47;5.10;;;3.72;;
46322;SDS011;32044;52.386;13.278;2022-10-17T07:42:13;7.70;;;4.18;;
46322;SDS011;32044;52.386;13.278;2022-10-17T07:44:38;5.15;;;3.97;;
46322;SDS011;32044;52.386;13.278;2022-10-17T07:47:04;6.13;;;3.67;;
46322;SDS011;32044;52.386;13.278;2022-10-17T07:49:29;7.18;;;3.83;;
46322;SDS011;32044;52.386;13.278;2022-10-17T07:51:54;10.95;;;3.75;;
46322;SDS011;32044;52.386;13.278;2022-10-17T07:54:20;6.55;;;3.55;;
46322;SDS011;32044;52.386;13.278;2022-10-17T07:56:45;7.40;;;3.47;;
46322;SDS011;32044;52.386;13.278;2022-10-17T07:59:14;5.47;;;3.33;;
46322;SDS011;32044;52.386;13.278;2022-10-17T08:01:40;4.55;;;3.38;;
46322;SDS011;32044;52.386;13.278;2022-10-17T08:04:05;5.55;;;3.10;;
46322;SDS011;32044;52.386;13.278;2022-10-17T08:06:31;4.38;;;3.33;;
46322;SDS011;32044;52.386;13.278;2022-10-17T08:08:56;4.70;;;3.03;;
46322;SDS011;32044;52.386;13.278;2022-10-17T08:11:22;5.10;;;3.03;;
46322;SDS011;32044;52.386;13.278;2022-10-17T08:13:49;5.03;;;3.30;;
46322;SDS011;32044;52.386;13.278;2022-10-17T08:16:14;6.10;;;3.30;;
46322;SDS011;32044;52.386;13.278;2022-10-17T08:18:40;7.05;;;3.45;;
46322;SDS011;32044;52.386;13.278;2022-10-17T08:21:06;4.78;;;3.03;;
46322;SDS011;32044;52.386;13.278;2022-10-17T08:23:32;4.72;;;3.38;;
46322;SDS011;32044;52.386;13.278;2022-10-17T08:25:58;5.35;;;3.42;;
46322;SDS011;32044;52.386;13.278;2022-10-17T08:28:24;6.00;;;3.03;;
46322;SDS011;32044;52.386;13.278;2022-10-17T08:30:50;7.25;;;3.17;;
46322;SDS011;32044;52.386;13.278;2022-10-17T08:33:15;5.93;;;3.17;;
46322;SDS011;32044;52.386;13.278;2022-10-17T08:35:40;7.55;;;3.50;;
46322;SDS011;32044;52.386;13.278;2022-10-17T08:38:05;4.88;;;3.22;;
46322;SDS011;32044;52.386;13.278;2022-10-17T08:40:31;5.75;;;3.20;;
46322;SDS011;32044;52.386;13.278;2022-10-17T08:43:04;5.47;;;3.47;;
46322;SDS011;32044;52.386;13.278;2022-10-17T08:45:39;5.93;;;3.42;;
46322;SDS011;32044;52.386;13.278;2022-10-17T08:48:11;4.90;;;2.92;;
46322;SDS011;32044;52.386;13.278;2022-10-17T08:53:15;6.28;;;3.50;;
46322;SDS011;32044;52.386;13.278;2022-10-17T08:55:47;3.35;;;3.00;;
46322;SDS011;32044;52.386;13.278;2022-10-17T08:58:16;3.70;;;3.00;;
46322;SDS011;32044;52.386;13.278;2022-10-17T09:00:49;4.28;;;3.25;;
46322;SDS011;32044;52.386;13.278;2022-10-17T09:03:27;6.00;;;3.45;;
46322;SDS011;32044;52.386;13.278;2022-10-17T09:06:12;5.22;;;3.50;;
46322;SDS011;32044;52.386;13.278;2022-10-17T09:08:54;8.13;;;3.00;;
46322;SDS011;32044;52.386;13.278;2022-10-17T09:14:35;6.32;;;3.28;;
46322;SDS011;32044;52.386;13.278;2022-10-17T09:19:54;6.25;;;2.80;;
46322;SDS011;32044;52.386;13.278;2022-10-17T09:22:25;8.50;;;3.53;;
46322;SDS011;32044;52.386;13.278;2022-10-17T09:24:58;4.93;;;3.22;;
46322;SDS011;32044;52.386;13.278;2022-10-17T09:27:46;6.25;;;2.80;;
46322;SDS011;32044;52.386;13.278;2022-10-17T09:30:25;5.00;;;3.08;;
46322;SDS011;32044;52.386;13.278;2022-10-17T09:32:58;5.60;;;2.92;;
46322;SDS011;32044;52.386;13.278;2022-10-17T09:35:23;7.60;;;3.25;;
46322;SDS011;32044;52.386;13.278;2022-10-17T09:37:49;6.10;;;2.97;;
46322;SDS011;32044;52.386;13.278;2022-10-17T09:40:26;6.45;;;2.88;;
46322;SDS011;32044;52.386;13.278;2022-10-17T09:42:55;7.40;;;3.28;;
46322;SDS011;32044;52.386;13.278;2022-10-17T09:45:22;3.10;;;2.80;;
46322;SDS011;32044;52.386;13.278;2022-10-17T09:50:40;5.80;;;3.17;;
46322;SDS011;32044;52.386;13.278;2022-10-17T09:53:11;4.63;;;2.85;;
46322;SDS011;32044;52.386;13.278;2022-10-17T09:55:40;4.03;;;2.65;;
46322;SDS011;32044;52.386;13.278;2022-10-17T09:58:07;6.82;;;2.72;;
46322;SDS011;32044;52.386;13.278;2022-10-17T10:00:37;5.40;;;2.95;;
46322;SDS011;32044;52.386;13.278;2022-10-17T10:03:13;6.95;;;2.80;;
46322;SDS011;32044;52.386;13.278;2022-10-17T10:09:03;3.08;;;2.38;;
46322;SDS011;32044;52.386;13.278;2022-10-17T10:11:25;2.65;;;2.45;;
46322;SDS011;32044;52.386;13.278;2022-10-17T10:14:18;3.72;;;2.60;;
46322;SDS011;32044;52.386;13.278;2022-10-17T10:16:53;2.42;;;2.17;;
46322;SDS011;32044;52.386;13.278;2022-10-17T10:19:27;7.68;;;2.67;;
46322;SDS011;32044;52.386;13.278;2022-10-17T10:22:04;3.45;;;2.28;;
46322;SDS011;32044;52.386;13.278;2022-10-17T10:24:30;6.03;;;2.30;;
46322;SDS011;32044;52.386;13.278;2022-10-17T10:26:57;7.47;;;2.55;;
46322;SDS011;32044;52.386;13.278;2022-10-17T10:29:36;5.88;;;2.65;;
46322;SDS011;32044;52.386;13.278;2022-10-17T10:37:29;4.85;;;2.08;;
46322;SDS011;32044;52.386;13.278;2022-10-17T10:40:06;5.53;;;2.20;;
46322;SDS011;32044;52.386;13.278;2022-10-17T10:42:41;3.88;;;2.30;;
46322;SDS011;32044;52.386;13.278;2022-10-17T10:45:18;4.55;;;2.33;;
46322;SDS011;32044;52.386;13.278;2022-10-17T10:50:23;4.05;;;2.28;;
46322;SDS011;32044;52.386;13.278;2022-10-17T10:55:31;3.90;;;2.40;;
46322;SDS011;32044;52.386;13.278;2022-10-17T10:58:02;6.03;;;2.65;;
46322;SDS011;32044;52.386;13.278;2022-10-17T11:00:42;4.85;;;2.60;;
46322;SDS011;32044;52.386;13.278;2022-10-17T11:03:09;7.55;;;2.90;;
46322;SDS011;32044;52.386;13.278;2022-10-17T11:05:48;5.30;;;2.22;;
46322;SDS011;32044;52.386;13.278;2022-10-17T11:08:25;5.18;;;2.50;;
46322;SDS011;32044;52.386;13.278;2022-10-17T11:11:10;7.10;;;2.30;;
46322;SDS011;32044;52.386;13.278;2022-10-17T11:13:47;6.22;;;2.78;;
46322;SDS011;32044;52.386;13.278;2022-10-17T11:16:45;5.22;;;2.50;;
46322;SDS011;32044;52.386;13.278;2022-10-17T11:24:29;2.45;;;2.15;;
46322;SDS011;32044;52.386;13.278;2022-10-17T11:26:59;4.15;;;2.70;;
46322;SDS011;32044;52.386;13.278;2022-10-17T11:29:29;6.85;;;2.50;;
46322;SDS011;32044;52.386;13.278;2022-10-17T11:31:56;5.30;;;2.30;;
46322;SDS011;32044;52.386;13.278;2022-10-17T11:34:26;4.75;;;2.72;;
46322;SDS011;32044;52.386;13.278;2022-10-17T11:37:05;6.40;;;2.80;;
46322;SDS011;32044;52.386;13.278;2022-10-17T11:42:39;5.72;;;2.80;;
46322;SDS011;32044;52.386;13.278;2022-10-17T11:45:14;5.88;;;2.45;;
46322;SDS011;32044;52.386;13.278;2022-10-17T11:47:45;4.28;;;2.60;;
46322;SDS011;32044;52.386;13.278;2022-10-17T11:53:04;3.40;;;2.88;;
46322;SDS011;32044;52.386;13.278;2022-10-17T11:55:33;3.60;;;3.00;;
46322;SDS011;32044;52.386;13.278;2022-10-17T11:58:17;3.47;;;2.45;;
46322;SDS011;32044;52.386;13.278;2022-10-17T12:03:25;3.47;;;2.55;;
46322;SDS011;32044;52.386;13.278;2022-10-17T12:08:35;2.83;;;2.40;;
46322;SDS011;32044;52.386;13.278;2022-10-17T12:11:06;4.05;;;2.40;;
46322;SDS011;32044;52.386;13.278;2022-10-17T12:18:43;4.68;;;2.60;;
46322;SDS011;32044;52.386;13.278;2022-10-17T12:21:08;4.53;;;2.40;;
46322;SDS011;32044;52.386;13.278;2022-10-17T12:23:34;3.28;;;2.53;;
46322;SDS011;32044;52.386;13.278;2022-10-17T12:26:03;4.70;;;2.63;;
46322;SDS011;32044;52.386;13.278;2022-10-17T12:28:40;8.43;;;2.40;;
46322;SDS011;32044;52.386;13.278;2022-10-17T12:33:53;4.40;;;2.65;;
46322;SDS011;32044;52.386;13.278;2022-10-17T12:54:38;4.90;;;2.40;;
46322;SDS011;32044;52.386;13.278;2022-10-17T12:57:12;5.70;;;2.40;;
46322;SDS011;32044;52.386;13.278;2022-10-17T12:59:42;3.88;;;2.38;;
46322;SDS011;32044;52.386;13.278;2022-10-17T13:02:07;2.33;;;2.00;;
46322;SDS011;32044;52.386;13.278;2022-10-17T13:04:54;4.45;;;2.20;;
46322;SDS011;32044;52.386;13.278;2022-10-17T13:07:26;3.67;;;2.08;;
46322;SDS011;32044;52.386;13.278;2022-10-17T13:09:52;2.67;;;2.20;;
46322;SDS011;32044;52.386;13.278;2022-10-17T13:12:21;9.80;;;2.70;;
46322;SDS011;32044;52.386;13.278;2022-10-17T13:14:49;4.20;;;2.17;;
46322;SDS011;32044;52.386;13.278;2022-10-17T13:17:26;3.50;;;2.40;;
46322;SDS011;32044;52.386;13.278;2022-10-17T13:19:54;6.47;;;2.50;;
46322;SDS011;32044;52.386;13.278;2022-10-17T13:22:20;8.15;;;2.10;;
46322;SDS011;32044;52.386;13.278;2022-10-17T13:24:48;6.68;;;2.08;;
46322;SDS011;32044;52.386;13.278;2022-10-17T13:27:24;5.43;;;2.20;;
46322;SDS011;32044;52.386;13.278;2022-10-17T13:29:52;5.13;;;2.42;;
46322;SDS011;32044;52.386;13.278;2022-10-17T13:32:17;6.32;;;2.15;;
46322;SDS011;32044;52.386;13.278;2022-10-17T13:34:42;5.75;;;2.20;;
46322;SDS011;32044;52.386;13.278;2022-10-17T13:37:09;5.57;;;2.33;;
46322;SDS011;32044;52.386;13.278;2022-10-17T13:39:38;3.50;;;2.22;;
46322;SDS011;32044;52.386;13.278;2022-10-17T13:42:05;6.53;;;2.22;;
46322;SDS011;32044;52.386;13.278;2022-10-17T13:44:31;2.42;;;2.00;;
46322;SDS011;32044;52.386;13.278;2022-10-17T13:46:57;4.05;;;2.67;;
46322;SDS011;32044;52.386;13.278;2022-10-17T13:49:36;7.65;;;2.72;;
46322;SDS011;32044;52.386;13.278;2022-10-17T13:52:05;5.95;;;2.30;;
46322;SDS011;32044;52.386;13.278;2022-10-17T13:57:25;4.50;;;2.15;;
46322;SDS011;32044;52.386;13.278;2022-10-17T13:59:52;4.55;;;2.22;;
46322;SDS011;32044;52.386;13.278;2022-10-17T14:02:22;4.38;;;2.40;;
46322;SDS011;32044;52.386;13.278;2022-10-17T14:05:02;6.53;;;2.75;;
46322;SDS011;32044;52.386;13.278;2022-10-17T14:07:34;3.78;;;2.30;;
46322;SDS011;32044;52.386;13.278;2022-10-17T14:10:02;7.35;;;2.75;;
46322;SDS011;32044;52.386;13.278;2022-10-17T14:12:30;6.47;;;2.55;;
46322;SDS011;32044;52.386;13.278;2022-10-17T14:14:56;5.03;;;2.30;;
46322;SDS011;32044;52.386;13.278;2022-10-17T14:17:22;4.38;;;2.70;;
46322;SDS011;32044;52.386;13.278;2022-10-17T14:19:54;3.35;;;2.35;;
46322;SDS011;32044;52.386;13.278;2022-10-17T14:24:46;4.10;;;2.40;;
46322;SDS011;32044;52.386;13.278;2022-10-17T14:27:25;9.95;;;2.75;;
46322;SDS011;32044;52.386;13.278;2022-10-17T14:29:54;5.15;;;2.30;;
46322;SDS011;32044;52.386;13.278;2022-10-17T14:32:24;5.75;;;2.47;;
46322;SDS011;32044;52.386;13.278;2022-10-17T14:34:51;5.90;;;2.50;;
46322;SDS011;32044;52.386;13.278;2022-10-17T14:39:59;5.03;;;2.72;;
46322;SDS011;32044;52.386;13.278;2022-10-17T14:42:25;9.75;;;2.80;;
46322;SDS011;32044;52.386;13.278;2022-10-17T14:44:51;6.35;;;2.38;;
46322;SDS011;32044;52.386;13.278;2022-10-17T14:47:19;5.95;;;2.35;;
46322;SDS011;32044;52.386;13.278;2022-10-17T14:49:47;8.48;;;2.67;;
46322;SDS011;32044;52.386;13.278;2022-10-17T14:54:39;4.93;;;2.33;;
46322;SDS011;32044;52.386;13.278;2022-10-17T14:57:13;4.68;;;2.30;;
46322;SDS011;32044;52.386;13.278;2022-10-17T14:59:39;6.55;;;2.63;;
46322;SDS011;32044;52.386;13.278;2022-10-17T15:02:04;4.47;;;2.58;;
46322;SDS011;32044;52.386;13.278;2022-10-17T15:04:29;6.05;;;2.50;;
46322;SDS011;32044;52.386;13.278;2022-10-17T15:06:54;7.47;;;2.65;;
46322;SDS011;32044;52.386;13.278;2022-10-17T15:09:20;3.05;;;2.17;;
46322;SDS011;32044;52.386;13.278;2022-10-17T15:11:46;4.30;;;2.50;;
46322;SDS011;32044;52.386;13.278;2022-10-17T15:14:11;9.10;;;3.08;;
46322;SDS011;32044;52.386;13.278;2022-10-17T15:16:36;8.13;;;2.63;;
46322;SDS011;32044;52.386;13.278;2022-10-17T15:19:03;4.07;;;2.70;;
46322;SDS011;32044;52.386;13.278;2022-10-17T15:21:28;2.67;;;2.35;;
46322;SDS011;32044;52.386;13.278;2022-10-17T15:23:54;5.93;;;2.70;;
46322;SDS011;32044;52.386;13.278;2022-10-17T15:26:20;5.32;;;2.20;;
46322;SDS011;32044;52.386;13.278;2022-10-17T15:28:47;6.80;;;2.17;;
46322;SDS011;32044;52.386;13.278;2022-10-17T15:31:14;7.00;;;2.28;;
46322;SDS011;32044;52.386;13.278;2022-10-17T15:33:40;4.25;;;2.17;;
46322;SDS011;32044;52.386;13.278;2022-10-17T15:36:19;5.53;;;2.28;;
46322;SDS011;32044;52.386;13.278;2022-10-17T15:38:56;7.28;;;2.33;;
46322;SDS011;32044;52.386;13.278;2022-10-17T15:41:24;5.75;;;2.60;;
46322;SDS011;32044;52.386;13.278;2022-10-17T15:43:50;4.78;;;2.38;;
46322;SDS011;32044;52.386;13.278;2022-10-17T15:46:16;7.50;;;2.20;;
46322;SDS011;32044;52.386;13.278;2022-10-17T15:48:45;6.10;;;2.45;;
46322;SDS011;32044;52.386;13.278;2022-10-17T15:51:10;2.88;;;2.10;;
46322;SDS011;32044;52.386;13.278;2022-10-17T15:53:35;5.68;;;2.15;;
46322;SDS011;32044;52.386;13.278;2022-10-17T15:56:01;4.47;;;2.20;;
46322;SDS011;32044;52.386;13.278;2022-10-17T15:58:27;6.10;;;2.20;;
46322;SDS011;32044;52.386;13.278;2022-10-17T16:00:58;8.85;;;2.53;;
46322;SDS011;32044;52.386;13.278;2022-10-17T16:03:24;6.35;;;2.05;;
46322;SDS011;32044;52.386;13.278;2022-10-17T16:05:49;4.97;;;2.00;;
46322;SDS011;32044;52.386;13.278;2022-10-17T16:08:14;4.50;;;2.00;;
46322;SDS011;32044;52.386;13.278;2022-10-17T16:10:39;2.60;;;2.10;;
46322;SDS011;32044;52.386;13.278;2022-10-17T16:13:05;4.95;;;2.35;;